createdAt,value
2022-10-23T00:01:47.622Z,18.03
2022-10-23T00:04:25.510Z,18.06
2022-10-23T00:06:53.454Z,18.13
2022-10-23T00:09:24.797Z,18.10
2022-10-23T00:11:53.758Z,18.11
2022-10-23T00:14:25.181Z,18.09
2022-10-23T00:16:53.190Z,18.07
2022-10-23T00:19:20.993Z,18.08
2022-10-23T00:21:48.852Z,18.12
2022-10-23T00:24:16.603Z,18.14
2022-10-23T00:26:44.469Z,18.17
2022-10-23T00:29:12.310Z,18.24
2022-10-23T00:31:40.010Z,18.29
2022-10-23T00:34:08.872Z,18.45
2022-10-23T00:36:37.557Z,18.62
2022-10-23T00:39:05.597Z,18.70
2022-10-23T00:41:33.532Z,18.80
2022-10-23T00:44:04.398Z,18.74
2022-10-23T00:46:33.630Z,18.65
2022-10-23T00:49:02.662Z,18.63
2022-10-23T00:51:39.222Z,18.55
2022-10-23T00:54:25.038Z,18.52
2022-10-23T00:57:00.438Z,18.58
2022-10-23T00:59:30.050Z,18.73
2022-10-23T01:01:59.137Z,18.87
2022-10-23T01:04:28.348Z,18.93
2022-10-23T01:07:57.035Z,18.95
2022-10-23T01:10:52.550Z,18.78
2022-10-23T01:13:53.948Z,18.74
2022-10-23T01:17:11.487Z,18.67
2022-10-23T01:20:01.510Z,18.51
2022-10-23T01:23:10.317Z,18.40
2022-10-23T01:26:18.728Z,18.35
2022-10-23T01:29:05.013Z,18.45
2022-10-23T01:32:01.608Z,18.54
2022-10-23T01:35:01.422Z,18.69
2022-10-23T01:37:53.210Z,18.76
2022-10-23T01:40:31.362Z,18.75
2022-10-23T01:43:08.442Z,18.77
2022-10-23T01:45:46.096Z,18.81
2022-10-23T01:48:21.541Z,18.80
2022-10-23T01:50:53.354Z,18.73
2022-10-23T01:53:23.835Z,18.65
2022-10-23T01:55:52.623Z,18.60
2022-10-23T01:58:23.034Z,18.59
2022-10-23T02:00:54.958Z,18.59
2022-10-23T02:03:24.745Z,18.57
2022-10-23T02:05:52.575Z,18.61
2022-10-23T02:08:20.539Z,18.66
2022-10-23T02:11:00.766Z,18.78
2022-10-23T02:13:45.246Z,18.87
2022-10-23T02:16:36.753Z,18.99
2022-10-23T02:19:25.289Z,19.11
2022-10-23T02:22:11.594Z,19.23
2022-10-23T02:24:58.498Z,19.31
2022-10-23T02:27:40.121Z,19.38
2022-10-23T02:30:15.047Z,19.43
2022-10-23T02:32:50.165Z,19.48
2022-10-23T02:35:22.511Z,19.48
2022-10-23T02:38:01.618Z,19.39
2022-10-23T02:40:45.789Z,19.37
2022-10-23T02:43:24.662Z,19.42
2022-10-23T02:46:20.679Z,19.52
2022-10-23T02:49:11.421Z,19.32
2022-10-23T02:51:58.200Z,18.33
2022-10-23T02:54:55.258Z,17.73
2022-10-23T02:57:33.534Z,18.18
2022-10-23T03:00:11.698Z,18.33
2022-10-23T03:02:59.025Z,18.28
2022-10-23T03:05:34.456Z,18.25
2022-10-23T03:08:10.552Z,18.28
2022-10-23T03:10:38.838Z,18.34
2022-10-23T03:13:07.915Z,18.34
2022-10-23T03:15:35.779Z,18.33
2022-10-23T03:18:03.735Z,18.33
2022-10-23T03:20:31.542Z,18.30
2022-10-23T03:22:59.270Z,18.29
2022-10-23T03:25:27.615Z,18.33
2022-10-23T03:27:55.329Z,18.33
2022-10-23T03:30:23.078Z,18.20
2022-10-23T03:32:51.082Z,18.02
2022-10-23T03:35:18.795Z,17.97
2022-10-23T03:37:46.470Z,18.01
2022-10-23T03:40:14.316Z,18.07
2022-10-23T03:42:42.007Z,18.13
2022-10-23T03:45:10.132Z,18.18
2022-10-23T03:47:41.520Z,18.23
2022-10-23T03:50:11.214Z,18.26
2022-10-23T03:52:39.754Z,18.28
2022-10-23T03:55:08.634Z,18.26
2022-10-23T03:57:36.561Z,18.32
2022-10-23T04:00:06.841Z,18.39
2022-10-23T04:02:34.745Z,18.31
2022-10-23T04:05:02.581Z,18.24
2022-10-23T04:07:30.272Z,18.16
2022-10-23T04:09:57.981Z,18.14
2022-10-23T04:12:25.709Z,18.30
2022-10-23T04:14:53.446Z,18.33
2022-10-23T04:17:21.243Z,18.30
2022-10-23T04:19:48.997Z,18.30
2022-10-23T04:22:16.720Z,18.35
2022-10-23T04:24:46.901Z,18.37
2022-10-23T04:27:15.163Z,18.36
2022-10-23T04:29:42.852Z,18.32
2022-10-23T04:32:10.528Z,18.26
2022-10-23T04:34:38.233Z,18.24
2022-10-23T04:37:05.904Z,18.22
2022-10-23T04:39:33.608Z,18.20
2022-10-23T04:42:01.364Z,18.16
2022-10-23T04:44:29.063Z,18.07
2022-10-23T04:46:56.802Z,18.05
2022-10-23T04:49:24.491Z,18.16
2022-10-23T04:51:52.224Z,18.17
2022-10-23T04:54:19.999Z,18.03
2022-10-23T04:56:47.734Z,17.86
2022-10-23T04:59:15.470Z,17.68
2022-10-23T05:01:43.507Z,17.51
2022-10-23T05:04:11.283Z,17.37
2022-10-23T05:06:39.024Z,17.31
2022-10-23T05:09:06.768Z,17.25
2022-10-23T05:11:34.455Z,17.36
2022-10-23T05:14:02.143Z,17.56
2022-10-23T05:16:48.369Z,17.70
2022-10-23T05:19:26.491Z,17.76
2022-10-23T05:21:56.167Z,17.63
2022-10-23T05:24:26.132Z,17.45
2022-10-23T05:26:54.255Z,17.51
2022-10-23T05:29:22.438Z,17.74
2022-10-23T05:31:57.168Z,17.96
2022-10-23T05:34:28.297Z,18.13
2022-10-23T05:36:56.963Z,18.20
2022-10-23T05:39:24.847Z,18.18
2022-10-23T05:41:52.577Z,18.18
2022-10-23T05:44:20.459Z,18.17
2022-10-23T05:46:48.156Z,18.15
2022-10-23T05:49:16.037Z,18.13
2022-10-23T05:51:43.753Z,18.21
2022-10-23T05:54:11.579Z,18.33
2022-10-23T05:56:43.417Z,18.45
2022-10-23T05:59:11.251Z,18.58
2022-10-23T06:01:39.136Z,18.74
2022-10-23T06:04:07.120Z,18.82
2022-10-23T06:06:36.874Z,18.82
2022-10-23T06:09:04.943Z,18.80
2022-10-23T06:11:32.731Z,18.81
2022-10-23T06:14:01.240Z,18.85
2022-10-23T06:16:29.515Z,18.79
2022-10-23T06:18:57.659Z,18.53
2022-10-23T06:21:25.335Z,18.29
2022-10-23T06:23:53.133Z,18.50
2022-10-23T06:26:21.235Z,18.80
2022-10-23T06:28:49.020Z,18.92
2022-10-23T06:31:19.350Z,18.91
2022-10-23T06:33:47.164Z,18.94
2022-10-23T06:36:14.824Z,19.03
2022-10-23T06:38:42.684Z,19.20
2022-10-23T06:41:19.784Z,19.36
2022-10-23T06:43:50.615Z,19.40
2022-10-23T06:46:20.069Z,19.36
2022-10-23T06:48:48.490Z,19.27
2022-10-23T06:51:17.577Z,19.19
2022-10-23T06:53:46.314Z,19.07
2022-10-23T06:56:14.189Z,18.91
2022-10-23T06:58:42.552Z,18.77
2022-10-23T07:01:13.599Z,18.69
2022-10-23T07:03:41.858Z,18.65
2022-10-23T07:06:11.828Z,18.57
2022-10-23T07:08:40.146Z,18.54
2022-10-23T07:11:10.775Z,18.54
2022-10-23T07:13:40.679Z,18.58
2022-10-23T07:16:25.895Z,18.57
2022-10-23T07:19:01.144Z,18.55
2022-10-23T07:21:35.414Z,18.62
2022-10-23T07:24:04.556Z,18.70
2022-10-23T07:26:33.142Z,18.73
2022-10-23T07:29:01.064Z,18.79
2022-10-23T07:31:29.648Z,18.80
2022-10-23T07:33:57.595Z,18.82
2022-10-23T07:36:25.511Z,18.89
2022-10-23T07:38:53.484Z,18.90
2022-10-23T07:41:21.637Z,18.99
2022-10-23T07:43:49.738Z,19.07
2022-10-23T07:46:17.761Z,19.10
2022-10-23T07:48:45.758Z,19.10
2022-10-23T07:51:16.376Z,19.01
2022-10-23T07:53:44.453Z,19.08
2022-10-23T07:56:15.990Z,19.16
2022-10-23T07:58:44.389Z,19.17
2022-10-23T08:01:27.359Z,19.24
2022-10-23T08:03:55.322Z,19.35
2022-10-23T08:06:23.340Z,19.32
2022-10-23T08:08:51.559Z,19.22
2022-10-23T08:11:26.498Z,19.19
2022-10-23T08:13:57.827Z,19.18
2022-10-23T08:16:26.413Z,19.11
2022-10-23T08:18:54.397Z,19.12
2022-10-23T08:21:22.290Z,19.18
2022-10-23T08:23:53.946Z,19.11
2022-10-23T08:26:23.327Z,19.19
2022-10-23T08:28:53.031Z,19.25
2022-10-23T08:31:22.849Z,19.26
2022-10-23T08:33:51.703Z,19.30
2022-10-23T08:36:23.264Z,19.26
2022-10-23T08:38:56.081Z,19.29
2022-10-23T08:41:43.066Z,19.31
2022-10-23T08:44:28.429Z,19.25
2022-10-23T08:47:12.429Z,19.27
2022-10-23T08:49:59.422Z,19.29
2022-10-23T08:52:37.794Z,19.30
2022-10-23T08:55:17.778Z,19.27
2022-10-23T08:58:01.329Z,19.31
2022-10-23T09:00:35.230Z,19.33
2022-10-23T09:03:06.020Z,19.34
2022-10-23T09:05:49.303Z,19.31
2022-10-23T09:08:58.822Z,19.31
2022-10-23T09:11:47.561Z,19.30
2022-10-23T09:14:57.691Z,19.29
2022-10-23T09:17:41.371Z,19.18
2022-10-23T09:20:20.858Z,19.16
2022-10-23T09:22:55.394Z,19.21
2022-10-23T09:25:28.209Z,19.20
2022-10-23T09:28:05.715Z,19.27
2022-10-23T09:30:39.214Z,19.31
2022-10-23T09:33:30.946Z,19.35
2022-10-23T09:36:20.472Z,19.36
2022-10-23T09:38:53.606Z,19.42
2022-10-23T09:41:38.523Z,19.53
2022-10-23T09:44:22.969Z,19.57
2022-10-23T09:47:13.186Z,19.60
2022-10-23T09:49:49.568Z,19.72
2022-10-23T09:52:18.010Z,19.80
2022-10-23T09:54:51.579Z,19.81
2022-10-23T09:57:36.017Z,19.77
2022-10-23T10:00:20.484Z,19.81
2022-10-23T10:03:00.494Z,19.92
2022-10-23T10:05:36.225Z,19.90
2022-10-23T10:08:34.715Z,19.89
2022-10-23T10:11:14.590Z,19.88
2022-10-23T10:14:36.247Z,19.85
2022-10-23T10:17:35.024Z,19.61
2022-10-23T10:20:24.399Z,19.54
2022-10-23T10:23:34.933Z,19.57
2022-10-23T10:26:37.356Z,19.65
2022-10-23T10:29:19.271Z,19.59
2022-10-23T10:32:14.172Z,19.56
2022-10-23T10:34:49.835Z,19.45
2022-10-23T10:38:10.742Z,19.39
2022-10-23T10:41:03.980Z,19.63
2022-10-23T10:43:53.017Z,19.69
2022-10-23T10:46:38.475Z,19.54
2022-10-23T10:49:18.053Z,19.34
2022-10-23T10:52:31.117Z,19.17
2022-10-23T10:55:19.044Z,19.14
2022-10-23T10:58:39.146Z,19.20
2022-10-23T11:01:36.999Z,19.24
2022-10-23T11:04:28.570Z,19.19
2022-10-23T11:07:07.078Z,19.14
2022-10-23T11:09:37.679Z,19.19
2022-10-23T11:12:05.830Z,19.27
2022-10-23T11:14:35.112Z,19.29
2022-10-23T11:17:27.525Z,19.30
2022-10-23T11:20:10.421Z,19.24
2022-10-23T11:22:56.250Z,19.24
2022-10-23T11:25:44.148Z,19.29
2022-10-23T11:28:56.038Z,19.23
2022-10-23T11:32:08.845Z,19.16
2022-10-23T11:35:25.252Z,19.14
2022-10-23T11:38:25.014Z,19.18
2022-10-23T11:41:01.551Z,19.13
2022-10-23T11:43:47.765Z,19.22
2022-10-23T11:46:38.276Z,19.38
2022-10-23T11:49:21.364Z,19.57
2022-10-23T11:52:05.526Z,19.65
2022-10-23T11:54:33.417Z,19.83
2022-10-23T11:57:10.262Z,19.92
2022-10-23T11:59:47.844Z,20.01
2022-10-23T12:02:36.954Z,20.14
2022-10-23T12:05:32.172Z,20.24
2022-10-23T12:08:02.559Z,20.18
2022-10-23T12:10:36.236Z,20.20
2022-10-23T12:13:39.145Z,20.32
2022-10-23T12:16:08.138Z,20.34
2022-10-23T12:18:53.301Z,19.82
2022-10-23T12:21:28.671Z,19.30
2022-10-23T12:24:24.904Z,19.09
2022-10-23T12:27:25.650Z,19.83
2022-10-23T12:30:19.279Z,20.06
2022-10-23T12:33:44.221Z,19.46
2022-10-23T12:36:49.427Z,18.77
2022-10-23T12:39:39.260Z,19.04
2022-10-23T12:42:21.176Z,19.50
2022-10-23T12:45:04.180Z,19.56
2022-10-23T12:47:32.607Z,19.45
2022-10-23T12:50:00.627Z,19.04
2022-10-23T12:52:28.660Z,18.61
2022-10-23T12:54:56.936Z,18.25
2022-10-23T12:57:28.453Z,18.14
2022-10-23T13:00:04.667Z,18.54
2022-10-23T13:02:34.701Z,19.47
2022-10-23T13:05:08.375Z,19.92
2022-10-23T13:07:44.686Z,19.52
2022-10-23T13:10:20.367Z,18.97
2022-10-23T13:12:59.954Z,18.51
2022-10-23T13:15:46.245Z,18.21
2022-10-23T13:18:16.986Z,18.67
2022-10-23T13:21:05.561Z,19.21
2022-10-23T13:23:35.663Z,19.63
2022-10-23T13:26:21.673Z,19.71
2022-10-23T13:28:50.652Z,19.07
2022-10-23T13:31:18.460Z,18.43
2022-10-23T13:34:06.271Z,18.15
2022-10-23T13:36:39.631Z,18.77
2022-10-23T13:39:10.649Z,19.32
2022-10-23T13:41:42.789Z,19.68
2022-10-23T13:44:14.862Z,19.33
2022-10-23T13:46:44.551Z,18.63
2022-10-23T13:49:12.565Z,18.03
2022-10-23T13:51:52.385Z,17.61
2022-10-23T13:57:00.579Z,18.50
2022-10-23T13:59:28.500Z,18.98
2022-10-23T14:01:56.460Z,19.52
2022-10-23T14:04:24.437Z,18.96
2022-10-23T14:06:58.591Z,18.18
2022-10-23T14:09:27.019Z,17.57
2022-10-23T14:11:54.893Z,17.55
2022-10-23T14:14:22.776Z,18.97
2022-10-23T14:16:52.873Z,19.97
2022-10-23T14:19:20.925Z,19.42
2022-10-23T14:21:48.822Z,18.64
2022-10-23T14:24:16.770Z,18.06
2022-10-23T14:26:44.710Z,17.64
2022-10-23T14:29:21.276Z,17.68
2022-10-23T14:31:52.370Z,19.13
2022-10-23T14:34:20.697Z,20.07
2022-10-23T14:36:56.724Z,19.56
2022-10-23T14:39:32.000Z,18.70
2022-10-23T14:41:59.858Z,18.09
2022-10-23T14:44:28.136Z,17.64
2022-10-23T14:46:56.249Z,17.27
2022-10-23T14:49:24.090Z,17.26
2022-10-23T14:51:51.954Z,18.55
2022-10-23T14:54:20.075Z,19.47
2022-10-23T14:56:48.395Z,19.04
2022-10-23T14:59:16.341Z,18.31
2022-10-23T15:01:48.260Z,17.77
2022-10-23T15:04:16.710Z,17.35
2022-10-23T15:06:46.553Z,17.22
2022-10-23T15:09:15.770Z,18.05
2022-10-23T15:11:43.841Z,19.07
2022-10-23T15:14:12.226Z,19.51
2022-10-23T15:16:43.492Z,18.90
2022-10-23T15:19:18.372Z,18.11
2022-10-23T15:21:48.605Z,17.49
2022-10-23T15:24:17.954Z,17.03
2022-10-23T15:26:46.173Z,16.87
2022-10-23T15:29:15.215Z,17.64
2022-10-23T15:31:57.161Z,18.35
2022-10-23T15:34:28.835Z,18.51
2022-10-23T15:36:58.665Z,17.85
2022-10-23T15:39:29.522Z,17.13
2022-10-23T15:41:57.652Z,16.74
2022-10-23T15:44:29.285Z,17.23
2022-10-23T15:46:58.326Z,17.78
2022-10-23T15:49:31.946Z,18.07
2022-10-23T15:52:00.519Z,18.21
2022-10-23T15:54:31.899Z,18.17
2022-10-23T15:57:02.753Z,17.52
2022-10-23T15:59:32.268Z,16.80
2022-10-23T16:02:00.574Z,16.38
2022-10-23T16:04:29.046Z,16.79
2022-10-23T16:06:57.232Z,17.30
2022-10-23T16:09:25.167Z,17.64
2022-10-23T16:11:53.079Z,18.36
2022-10-23T16:14:22.625Z,18.90
2022-10-23T16:16:53.052Z,18.13
2022-10-23T16:19:21.021Z,17.21
2022-10-23T16:21:49.072Z,16.51
2022-10-23T16:24:17.109Z,16.16
2022-10-23T16:26:50.481Z,16.73
2022-10-23T16:29:22.337Z,17.60
2022-10-23T16:31:53.082Z,18.17
2022-10-23T16:34:22.060Z,17.37
2022-10-23T16:36:50.093Z,16.32
2022-10-23T16:39:20.803Z,15.68
2022-10-23T16:41:49.160Z,16.02
2022-10-23T16:44:17.204Z,16.75
2022-10-23T16:46:45.196Z,17.58
2022-10-23T16:49:14.606Z,17.93
2022-10-23T16:51:42.525Z,18.01
2022-10-23T16:54:14.717Z,18.05
2022-10-23T16:56:43.619Z,18.20
2022-10-23T16:59:11.994Z,18.07
2022-10-23T17:01:40.754Z,17.10
2022-10-23T17:04:08.914Z,16.09
2022-10-23T17:06:37.697Z,15.50
2022-10-23T17:09:06.374Z,15.90
2022-10-23T17:11:40.538Z,16.41
2022-10-23T17:14:19.924Z,16.77
2022-10-23T17:16:51.632Z,17.16
2022-10-23T17:19:45.040Z,17.69
2022-10-23T17:22:14.819Z,17.67
2022-10-23T17:24:46.376Z,16.65
2022-10-23T17:27:17.254Z,15.64
2022-10-23T17:29:45.248Z,15.13
2022-10-23T17:32:13.336Z,15.74
2022-10-23T17:34:41.380Z,16.36
2022-10-23T17:37:10.383Z,16.84
2022-10-23T17:39:38.237Z,17.35
2022-10-23T17:42:06.099Z,17.52
2022-10-23T17:44:34.269Z,17.32
2022-10-23T17:47:02.259Z,16.36
2022-10-23T17:49:30.158Z,15.35
2022-10-23T17:52:00.395Z,14.73
2022-10-23T17:54:28.625Z,15.07
2022-10-23T17:56:56.954Z,15.63
2022-10-23T17:59:24.931Z,15.93
2022-10-23T18:01:56.307Z,15.99
2022-10-23T18:04:25.201Z,16.01
2022-10-23T18:07:01.089Z,15.96
2022-10-23T18:09:28.990Z,15.97
2022-10-23T18:11:57.238Z,16.00
2022-10-23T18:14:27.339Z,15.99
2022-10-23T18:16:57.459Z,15.94
2022-10-23T18:19:25.374Z,15.82
2022-10-23T18:21:53.342Z,15.71
2022-10-23T18:24:21.269Z,15.66
2022-10-23T18:26:49.194Z,15.59
2022-10-23T18:29:18.040Z,15.51
2022-10-23T18:31:48.442Z,15.48
2022-10-23T18:34:23.707Z,15.48
2022-10-23T18:36:54.517Z,15.52
2022-10-23T18:39:26.179Z,15.56
2022-10-23T18:41:58.221Z,15.64
2022-10-23T18:44:31.288Z,15.68
2022-10-23T18:47:00.716Z,15.67
2022-10-23T18:49:28.909Z,15.61
2022-10-23T18:51:58.477Z,15.63
2022-10-23T18:54:30.039Z,15.75
2022-10-23T18:56:57.762Z,15.88
2022-10-23T18:59:25.544Z,15.98
2022-10-23T19:01:53.716Z,16.00
2022-10-23T19:04:22.103Z,16.03
2022-10-23T19:06:51.253Z,16.08
2022-10-23T19:09:20.346Z,16.12
2022-10-23T19:11:48.550Z,16.16
2022-10-23T19:14:16.759Z,16.21
2022-10-23T19:17:03.053Z,16.28
2022-10-23T19:19:43.254Z,16.39
2022-10-23T19:22:14.172Z,16.52
2022-10-23T19:24:49.308Z,16.57
2022-10-23T19:27:20.070Z,16.56
2022-10-23T19:29:51.809Z,16.53
2022-10-23T19:32:19.606Z,16.48
2022-10-23T19:34:47.510Z,16.42
2022-10-23T19:37:16.118Z,16.42
2022-10-23T19:39:43.985Z,16.32
2022-10-23T19:42:13.641Z,15.61
2022-10-23T19:44:41.954Z,14.92
2022-10-23T19:47:10.059Z,15.06
2022-10-23T19:49:38.581Z,15.71
2022-10-23T19:52:08.073Z,16.22
2022-10-23T19:54:36.105Z,16.29
2022-10-23T19:57:04.714Z,16.31
2022-10-23T19:59:36.521Z,16.34
2022-10-23T20:02:04.663Z,16.37
2022-10-23T20:04:32.534Z,16.46
2022-10-23T20:07:00.669Z,16.52
2022-10-23T20:09:28.480Z,16.55
2022-10-23T20:11:56.306Z,16.35
2022-10-23T20:14:24.065Z,15.50
2022-10-23T20:16:55.887Z,14.76
2022-10-23T20:19:24.138Z,14.88
2022-10-23T20:21:52.809Z,15.19
2022-10-23T20:24:22.784Z,15.35
2022-10-23T20:26:54.535Z,15.42
2022-10-23T20:29:26.901Z,15.47
2022-10-23T20:31:54.720Z,15.55
2022-10-23T20:34:22.489Z,15.62
2022-10-23T20:36:50.550Z,15.68
2022-10-23T20:39:25.767Z,15.74
2022-10-23T20:41:55.555Z,15.78
2022-10-23T20:44:24.504Z,15.82
2022-10-23T20:46:52.745Z,15.90
2022-10-23T20:49:22.098Z,15.99
2022-10-23T20:51:55.839Z,16.09
2022-10-23T20:54:26.990Z,16.19
2022-10-23T20:56:57.151Z,16.26
2022-10-23T20:59:25.485Z,16.24
2022-10-23T21:01:55.599Z,16.12
2022-10-23T21:04:27.628Z,16.03
2022-10-23T21:07:09.874Z,15.99
2022-10-23T21:09:39.504Z,15.96
2022-10-23T21:12:07.809Z,15.91
2022-10-23T21:14:36.469Z,15.86
2022-10-23T21:17:05.320Z,15.83
2022-10-23T21:19:33.093Z,15.80
2022-10-23T21:22:00.863Z,15.77
2022-10-23T21:24:28.603Z,15.76
2022-10-23T21:26:56.634Z,15.77
2022-10-23T21:29:24.394Z,15.80
2022-10-23T21:31:59.792Z,15.82
2022-10-23T21:34:28.369Z,15.78
2022-10-23T21:37:13.347Z,15.73
2022-10-23T21:39:44.040Z,15.71
2022-10-23T21:42:14.155Z,15.74
2022-10-23T21:44:42.057Z,15.80
2022-10-23T21:47:10.181Z,15.90
2022-10-23T21:49:37.996Z,16.00
2022-10-23T21:52:06.619Z,16.12
2022-10-23T21:54:34.373Z,16.22
2022-10-23T21:57:03.568Z,16.30
2022-10-23T21:59:33.150Z,16.33
2022-10-23T22:02:04.389Z,16.31
2022-10-23T22:04:32.376Z,16.28
2022-10-23T22:07:00.382Z,16.28
2022-10-23T22:09:28.903Z,16.28
2022-10-23T22:11:57.040Z,16.30
2022-10-23T22:14:24.705Z,16.38
2022-10-23T22:16:53.784Z,16.52
2022-10-23T22:19:23.490Z,16.65
2022-10-23T22:21:52.001Z,16.76
2022-10-23T22:24:20.195Z,16.82
2022-10-23T22:26:53.729Z,16.86
2022-10-23T22:29:26.710Z,16.89
2022-10-23T22:31:54.480Z,16.92
2022-10-23T22:34:48.389Z,16.86
2022-10-23T22:37:13.833Z,16.79
2022-10-23T22:39:41.952Z,16.80
2022-10-23T22:42:09.897Z,16.77
2022-10-23T22:44:37.708Z,16.71
2022-10-23T22:47:05.416Z,16.71
2022-10-23T22:49:33.114Z,16.74
2022-10-23T22:52:00.971Z,16.76
2022-10-23T22:54:30.706Z,16.82
2022-10-23T22:56:58.610Z,16.90
2022-10-23T22:59:26.572Z,16.95
2022-10-23T23:01:54.878Z,17.06
2022-10-23T23:04:38.992Z,17.19
2022-10-23T23:07:10.389Z,17.06
2022-10-23T23:09:41.604Z,16.25
2022-10-23T23:12:13.367Z,15.41
2022-10-23T23:14:42.575Z,14.94
2022-10-23T23:17:11.346Z,15.30
2022-10-23T23:19:39.488Z,15.77
2022-10-23T23:22:07.393Z,16.12
2022-10-23T23:24:35.210Z,16.34
2022-10-23T23:27:03.086Z,16.26
2022-10-23T23:29:31.985Z,15.35
2022-10-23T23:31:59.743Z,14.56
2022-10-23T23:34:29.010Z,14.77
2022-10-23T23:36:56.805Z,15.28
2022-10-23T23:39:26.220Z,15.68
2022-10-23T23:41:54.117Z,15.99
2022-10-23T23:44:21.932Z,16.19
2022-10-23T23:46:49.685Z,16.22
2022-10-23T23:49:17.348Z,16.24
2022-10-23T23:51:45.018Z,16.13
2022-10-23T23:54:12.721Z,15.36
2022-10-23T23:56:40.715Z,14.52
2022-10-23T23:59:08.502Z,14.01
